Williamsburg, Virginia
Current Conditions -  °F | °C
As of 12:58 PM on Monday 26 Jan 2015 (Local Time) from KFAF Reporting Station
Clear Clear  
Wind Chill: 51°   Ceiling: Unl
Heat Index: 51°   Visibility: 10mi
Dew Point: 43°   Wind: 6mph
Humidity: 73%   Direction: 80°E
Pressure: 29.6"   Gusts: NA
Location:  37.28°N, 76.71°W
Report Text: KFAF 261758Z AUTO 08005KT 10SM CLR 11/06 A2960 RMK AO2 SLP027 T01080062 10109 20046 57031 $
Loading
Personal Weather Stations






























Interactive Weather Map New forecast layout! Learn more

10-Day Weather Forecast

Advertisements
Track Severe Weather on mobile